Terminal Aerodrome Forecast
Issued by NWS

Home | Current Version | Previous Version | Text Only | Print | Product List | Glossary On
Versions: 1 2 3 4 5 6 7 8 9 10 11 12 13 14 15 16 17 18
261
FTUS44 KLZK 260900 AAA
TAFHOT
TAF AMD
KHOT 260900Z 2609/2706 VRB03KT P6SM SCT050 BKN250
      TEMPO 2609/2613 4SM BR BKN002
     FM261700 08005KT P6SM VCTS SCT050CB SCT250
     FM270100 11005KT P6SM FEW030 SCT100 BKN250=

USA.gov is the U.S. government's official web portal to all federal, state and local government web resources and services.